Mon Ta — WDG3264 — position and weather

sailwx.info

Track history (hours):
 
Tides and Currents Weather Stations Pressure Air Temp Water Temp Dewpoint Dewpoint Depression Visibility Wind Speed Wind Dir Waves Ship Positions

Mon Ta

Owner: LA Carriers, LLC, Cut Off, LA. More information available from US FCC via Universal Licensing System and Coast Guard Vessel Documentation Center.

Last reported at 2018-Jun-14 20:25 UTC. Time now 2018-Jun-18 22:41 UTC.
Position N 29°35' W 090°23'.

Length 23 m; draft 3 m.

Type: Towing. MMSI: 367524240.

Date/timePositionNaut miles runAvg speedWind from/ knotsBaromVisibWave heightAir tempDewpointWater temp
2018-Jun-14 20:25N 29°35' W 090°23'1 1.9
2018-Jun-14 19:41N 29°34' W 090°23'1 2.5
2018-Jun-14 19:27N 29°33' W 090°24'1 3.3
2018-Jun-14 19:00N 29°33' W 090°25'1 2.4
2018-Jun-14 18:28N 29°33' W 090°27'2 4.0
2018-Jun-14 18:00N 29°34' W 090°29'2 4.0
2018-Jun-14 17:30N 29°34' W 090°31'2 4.1
2018-Jun-14 17:00N 29°34' W 090°34'2 4.1
2018-Jun-14 16:30N 29°35' W 090°36'2 3.5
2018-Jun-14 16:01N 29°35' W 090°38'2 3.7
2018-Jun-14 15:31N 29°36' W 090°40'2 4.1
2018-Jun-14 15:00N 29°37' W 090°42'2 3.2
2018-Jun-14 14:30N 29°35' W 090°43'2 3.6
2018-Jun-14 14:00N 29°34' W 090°44'1 2.6
2018-Jun-14 13:31N 29°33' W 090°45'2 3.2
2018-Jun-14 13:00N 29°32' W 090°46'2 4.8
2018-Jun-14 12:30N 29°32' W 090°49'8 4.0
2018-Jun-14 10:29N 29°35' W 090°58'47 1.8
2018-Jun-13 07:35N 29°50' W 091°50'52 3.8
2018-Jun-12 17:41N 29°32' W 090°53'1 5.5
2018-Jun-12 17:29N 29°32' W 090°52'3 5.8
2018-Jun-12 17:00N 29°32' W 090°48'3 5.3
2018-Jun-12 16:31N 29°33' W 090°46'3 5.2
2018-Jun-12 16:01N 29°34' W 090°43'3 5.0
2018-Jun-12 15:30N 29°37' W 090°42'0 1.0
2018-Jun-12 15:00N 29°37' W 090°42'1 2.6
2018-Jun-12 14:31N 29°36' W 090°41'3 5.3
2018-Jun-12 14:00N 29°35' W 090°38'3 5.0
2018-Jun-12 13:30N 29°35' W 090°35'10 5.4
2018-Jun-12 11:40N 29°33' W 090°24'1 3.7
2018-Jun-12 11:29N 29°34' W 090°23'1 0.0
2018-Jun-10 20:41N 29°33' W 090°24'1 3.3
2018-Jun-10 20:29N 29°33' W 090°25'2 3.7
2018-Jun-10 20:00N 29°33' W 090°27'2 3.7
2018-Jun-10 19:30N 29°34' W 090°29'2 3.5
2018-Jun-10 19:00N 29°34' W 090°31'2 3.6
2018-Jun-10 18:30N 29°34' W 090°33'2 3.7
2018-Jun-10 18:00N 29°34' W 090°35'2 3.7
2018-Jun-10 17:31N 29°35' W 090°37'2 3.6
2018-Jun-10 17:00N 29°35' W 090°39'2 3.5
2018-Jun-10 16:30N 29°36' W 090°41'2 3.4
2018-Jun-10 16:00N 29°37' W 090°42'2 3.9
2018-Jun-10 15:30N 29°35' W 090°43'2 3.3
2018-Jun-10 15:00N 29°34' W 090°45'1 1.4
2018-Jun-10 14:31N 29°33' W 090°45'1 1.0
2018-Jun-10 13:30N 29°32' W 090°46'2 4.1
2018-Jun-10 12:59N 29°32' W 090°48'62 2.7
2018-Jun-09 14:29N 29°51' W 091°56'2 3.8
2018-Jun-09 14:01N 29°50' W 091°58'2 3.4
2018-Jun-09 13:31N 29°50' W 091°60'2 3.4
2018-Jun-09 13:01N 29°49' W 092°02'2 3.8
2018-Jun-09 12:31N 29°49' W 092°04'2 3.7
2018-Jun-09 12:00N 29°48' W 092°06'2 3.7
2018-Jun-09 11:31N 29°47' W 092°08'2 3.7
2018-Jun-09 11:00N 29°47' W 092°10'1 2.9
2018-Jun-09 10:30N 29°47' W 092°11'1 2.0
2018-Jun-09 10:01N 29°47' W 092°12'1 1.3
2018-Jun-09 09:30N 29°47' W 092°13'1 1.2
2018-Jun-09 09:01N 29°48' W 092°14'0 0.0
2018-Jun-09 08:30N 29°48' W 092°14'1 1.1
2018-Jun-09 08:00N 29°48' W 092°14'0 0.5
2018-Jun-09 07:31N 29°48' W 092°15'0 0.2
2018-Jun-09 07:01N 29°48' W 092°15'0 0.8
2018-Jun-09 06:31N 29°48' W 092°15'1 1.2
2018-Jun-09 06:00N 29°48' W 092°16'1 2.0
2018-Jun-09 05:31N 29°49' W 092°17'1 2.9
2018-Jun-09 05:00N 29°50' W 092°18'1 2.9
2018-Jun-09 04:30N 29°50' W 092°19'2 3.2
2018-Jun-09 04:01N 29°51' W 092°21'3 3.0
2018-Jun-09 02:59N 29°53' W 092°24'34 3.2
2018-Jun-08 16:26N 29°56' W 093°03'1 3.3
2018-Jun-08 15:59N 29°56' W 093°05'2 3.3
2018-Jun-08 15:30N 29°56' W 093°07'2 3.3
2018-Jun-08 15:01N 29°56' W 093°08'2 3.1
2018-Jun-08 14:30N 29°57' W 093°10'2 3.2
2018-Jun-08 14:00N 29°58' W 093°11'1 2.2
2018-Jun-08 13:28N 29°59' W 093°12'0 0.1
2018-Jun-08 12:58N 29°59' W 093°12'0 0.0
2018-Jun-08 12:31N 29°59' W 093°12'0 0.0
2018-Jun-08 12:01N 29°59' W 093°12'0 0.0
2018-Jun-08 11:30N 29°59' W 093°12'0 0.0
2018-Jun-08 11:01N 29°59' W 093°12'0 0.0
2018-Jun-08 10:31N 29°59' W 093°12'0 0.0
2018-Jun-08 10:01N 29°59' W 093°12'0 0.1
2018-Jun-08 09:31N 29°59' W 093°12'0 0.1
2018-Jun-08 09:01N 29°59' W 093°12'0 0.1
2018-Jun-08 08:31N 29°59' W 093°12'0 0.0
2018-Jun-08 08:01N 29°59' W 093°12'0 0.2
2018-Jun-08 07:30N 29°59' W 093°12'0 0.0
2018-Jun-08 07:01N 29°59' W 093°12'0 0.4
2018-Jun-08 06:30N 29°58' W 093°12'1 1.9
2018-Jun-08 06:00N 29°58' W 093°11'1 2.0
2018-Jun-08 05:30N 29°57' W 093°10'0 0.1
2018-Jun-08 04:51N 29°57' W 093°10'0 0.0
2018-Jun-08 04:26N 29°57' W 093°10'0 0.0
2018-Jun-08 03:58N 29°57' W 093°10'0 0.0
2018-Jun-08 02:47N 29°57' W 093°10'0 0.0
2018-Jun-08 02:15N 29°57' W 093°10'0 0.0
2018-Jun-08 01:29N 29°57' W 093°10'0 0.0
2018-Jun-07 18:50N 29°57' W 093°10'0 0.0
2018-Jun-07 18:28N 29°57' W 093°10'0 0.0
2018-Jun-07 17:56N 29°57' W 093°10'0 0.2
2018-Jun-07 17:31N 29°57' W 093°10'0 0.5
2018-Jun-07 16:50N 29°57' W 093°10'0 0.0
2018-Jun-07 16:29N 29°57' W 093°10'0 0.0
2018-Jun-07 16:00N 29°57' W 093°10'0 0.0
2018-Jun-07 15:30N 29°57' W 093°10'0 0.0
2018-Jun-07 15:01N 29°57' W 093°10'0 0.0
2018-Jun-07 14:30N 29°57' W 093°10'1 1.7
2018-Jun-07 14:01N 29°56' W 093°09'2 3.3
2018-Jun-07 13:30N 29°56' W 093°07'2 3.6
2018-Jun-07 13:01N 29°56' W 093°05'2 3.4
2018-Jun-07 12:30N 29°56' W 093°03'2 3.4
2018-Jun-07 12:01N 29°56' W 093°01'2 3.6
2018-Jun-07 11:29N 29°56' W 092°59'2 3.5
2018-Jun-07 11:00N 29°56' W 092°57'2 3.1
2018-Jun-07 10:30N 29°56' W 092°56'22 3.1
2018-Jun-07 03:15N 29°54' W 092°30'1 2.8
2018-Jun-07 03:00N 29°54' W 092°29'2 3.6
2018-Jun-07 02:31N 29°54' W 092°27'2 3.6
2018-Jun-07 02:01N 29°53' W 092°25'2 3.5
2018-Jun-07 01:26N 29°53' W 092°23'2 3.6
2018-Jun-07 00:54N 29°51' W 092°22'1 3.7
2018-Jun-07 00:30N 29°51' W 092°20'2 3.7
2018-Jun-07 00:01N 29°50' W 092°18'2 3.6
2018-Jun-06 23:29N 29°49' W 092°17'2 3.2
2018-Jun-06 23:01N 29°48' W 092°15'1 2.8
2018-Jun-06 22:31N 29°48' W 092°14'1 2.2
2018-Jun-06 21:59N 29°47' W 092°12'0 0.4
2018-Jun-06 21:30N 29°47' W 092°12'0 0.9
2018-Jun-06 21:00N 29°47' W 092°12'0 0.5
2018-Jun-06 20:30N 29°47' W 092°11'0 0.0
2018-Jun-06 20:00N 29°47' W 092°11'0 0.1
2018-Jun-06 19:31N 29°47' W 092°11'0 0.1
2018-Jun-06 19:00N 29°47' W 092°11'0 0.3
2018-Jun-06 18:31N 29°47' W 092°11'0 0.1
2018-Jun-06 18:00N 29°47' W 092°11'0 0.6
2018-Jun-06 17:31N 29°47' W 092°11'2 3.2
2018-Jun-06 17:00N 29°47' W 092°09'1 1.9
2018-Jun-06 16:30N 29°47' W 092°08'0 0.0
2018-Jun-06 16:01N 29°47' W 092°08'0 0.2
2018-Jun-06 15:30N 29°47' W 092°08'1 2.0
2018-Jun-06 15:01N 29°48' W 092°07'1 2.4
2018-Jun-06 14:30N 29°48' W 092°05'0 0.2
2018-Jun-06 14:00N 29°48' W 092°05'0 0.0
2018-Jun-06 13:30N 29°48' W 092°05'0 0.0
2018-Jun-06 13:00N 29°48' W 092°05'0 0.0
2018-Jun-06 12:30N 29°48' W 092°05'0 0.0
2018-Jun-06 12:00N 29°48' W 092°05'0 0.2
2018-Jun-06 11:30N 29°48' W 092°05'1 2.4
2018-Jun-06 11:01N 29°48' W 092°04'2 3.2
2018-Jun-06 10:31N 29°49' W 092°02'2 3.2
2018-Jun-06 09:56N 29°50' W 092°00'2 3.4
2018-Jun-06 09:28N 29°50' W 091°59'2 3.5
2018-Jun-06 08:47N 29°51' W 091°56'6 3.7
2018-Jun-06 07:17N 29°50' W 091°50'1 3.7
2018-Jun-06 07:00N 29°49' W 091°49'53 3.0
2018-Jun-05 13:33N 29°32' W 090°52'0 4.0
2018-Jun-05 13:28N 29°32' W 090°51'2 3.9
2018-Jun-05 13:00N 29°32' W 090°49'2 3.9
2018-Jun-05 12:30N 29°32' W 090°47'2 3.2
2018-Jun-05 12:00N 29°33' W 090°45'2 3.2
2018-Jun-05 11:31N 29°34' W 090°44'1 2.6
2018-Jun-05 11:01N 29°35' W 090°43'2 3.0
2018-Jun-05 10:31N 29°36' W 090°43'1 2.6
2018-Jun-05 10:00N 29°36' W 090°41'2 3.4
2018-Jun-05 09:30N 29°36' W 090°39'2 3.4
2018-Jun-05 09:00N 29°35' W 090°38'2 3.2
2018-Jun-05 08:30N 29°35' W 090°36'2 2.9
2018-Jun-05 07:57N 29°34' W 090°34'1 3.2
2018-Jun-05 07:30N 29°34' W 090°32'2 3.1
2018-Jun-05 06:58N 29°34' W 090°31'8 1.9
2018-Jun-05 02:42N 29°36' W 090°22'  
Track history (hours):
 
Tides and Currents Weather Stations Pressure Air Temp Water Temp Dewpoint Dewpoint Depression Visibility Wind Speed Wind Dir Waves Ship Positions

Mon Ta

Owner: LA Carriers, LLC, Cut Off, LA. More information available from US FCC via Universal Licensing System and Coast Guard Vessel Documentation Center.

Last reported at 2018-Jun-14 20:25 UTC. Time now 2018-Jun-18 22:41 UTC.
Position N 29°35' W 090°23'.

Length 23 m; draft 3 m.

Type: Towing. MMSI: 367524240.

Date/timePositionNaut miles runAvg speedWind from/ knotsBaromVisibWave heightAir tempDewpointWater temp
2018-Jun-14 20:25N 29°35' W 090°23'1 1.9
2018-Jun-14 19:41N 29°34' W 090°23'1 2.5
2018-Jun-14 19:27N 29°33' W 090°24'1 3.3
2018-Jun-14 19:00N 29°33' W 090°25'1 2.4
2018-Jun-14 18:28N 29°33' W 090°27'2 4.0
2018-Jun-14 18:00N 29°34' W 090°29'2 4.0
2018-Jun-14 17:30N 29°34' W 090°31'2 4.1
2018-Jun-14 17:00N 29°34' W 090°34'2 4.1
2018-Jun-14 16:30N 29°35' W 090°36'2 3.5
2018-Jun-14 16:01N 29°35' W 090°38'2 3.7
2018-Jun-14 15:31N 29°36' W 090°40'2 4.1
2018-Jun-14 15:00N 29°37' W 090°42'2 3.2
2018-Jun-14 14:30N 29°35' W 090°43'2 3.6
2018-Jun-14 14:00N 29°34' W 090°44'1 2.6
2018-Jun-14 13:31N 29°33' W 090°45'2 3.2
2018-Jun-14 13:00N 29°32' W 090°46'2 4.8
2018-Jun-14 12:30N 29°32' W 090°49'8 4.0
2018-Jun-14 10:29N 29°35' W 090°58'47 1.8
2018-Jun-13 07:35N 29°50' W 091°50'52 3.8
2018-Jun-12 17:41N 29°32' W 090°53'1 5.5
2018-Jun-12 17:29N 29°32' W 090°52'3 5.8
2018-Jun-12 17:00N 29°32' W 090°48'3 5.3
2018-Jun-12 16:31N 29°33' W 090°46'3 5.2
2018-Jun-12 16:01N 29°34' W 090°43'3 5.0
2018-Jun-12 15:30N 29°37' W 090°42'0 1.0
2018-Jun-12 15:00N 29°37' W 090°42'1 2.6
2018-Jun-12 14:31N 29°36' W 090°41'3 5.3
2018-Jun-12 14:00N 29°35' W 090°38'3 5.0
2018-Jun-12 13:30N 29°35' W 090°35'10 5.4
2018-Jun-12 11:40N 29°33' W 090°24'1 3.7
2018-Jun-12 11:29N 29°34' W 090°23'1 0.0
2018-Jun-10 20:41N 29°33' W 090°24'1 3.3
2018-Jun-10 20:29N 29°33' W 090°25'2 3.7
2018-Jun-10 20:00N 29°33' W 090°27'2 3.7
2018-Jun-10 19:30N 29°34' W 090°29'2 3.5
2018-Jun-10 19:00N 29°34' W 090°31'2 3.6
2018-Jun-10 18:30N 29°34' W 090°33'2 3.7
2018-Jun-10 18:00N 29°34' W 090°35'2 3.7
2018-Jun-10 17:31N 29°35' W 090°37'2 3.6
2018-Jun-10 17:00N 29°35' W 090°39'2 3.5
2018-Jun-10 16:30N 29°36' W 090°41'2 3.4
2018-Jun-10 16:00N 29°37' W 090°42'2 3.9
2018-Jun-10 15:30N 29°35' W 090°43'2 3.3
2018-Jun-10 15:00N 29°34' W 090°45'1 1.4
2018-Jun-10 14:31N 29°33' W 090°45'1 1.0
2018-Jun-10 13:30N 29°32' W 090°46'2 4.1
2018-Jun-10 12:59N 29°32' W 090°48'62 2.7
2018-Jun-09 14:29N 29°51' W 091°56'2 3.8
2018-Jun-09 14:01N 29°50' W 091°58'2 3.4
2018-Jun-09 13:31N 29°50' W 091°60'2 3.4
2018-Jun-09 13:01N 29°49' W 092°02'2 3.8
2018-Jun-09 12:31N 29°49' W 092°04'2 3.7
2018-Jun-09 12:00N 29°48' W 092°06'2 3.7
2018-Jun-09 11:31N 29°47' W 092°08'2 3.7
2018-Jun-09 11:00N 29°47' W 092°10'1 2.9
2018-Jun-09 10:30N 29°47' W 092°11'1 2.0
2018-Jun-09 10:01N 29°47' W 092°12'1 1.3
2018-Jun-09 09:30N 29°47' W 092°13'1 1.2
2018-Jun-09 09:01N 29°48' W 092°14'0 0.0
2018-Jun-09 08:30N 29°48' W 092°14'1 1.1
2018-Jun-09 08:00N 29°48' W 092°14'0 0.5
2018-Jun-09 07:31N 29°48' W 092°15'0 0.2
2018-Jun-09 07:01N 29°48' W 092°15'0 0.8
2018-Jun-09 06:31N 29°48' W 092°15'1 1.2
2018-Jun-09 06:00N 29°48' W 092°16'1 2.0
2018-Jun-09 05:31N 29°49' W 092°17'1 2.9
2018-Jun-09 05:00N 29°50' W 092°18'1 2.9
2018-Jun-09 04:30N 29°50' W 092°19'2 3.2
2018-Jun-09 04:01N 29°51' W 092°21'3 3.0
2018-Jun-09 02:59N 29°53' W 092°24'34 3.2
2018-Jun-08 16:26N 29°56' W 093°03'1 3.3
2018-Jun-08 15:59N 29°56' W 093°05'2 3.3
2018-Jun-08 15:30N 29°56' W 093°07'2 3.3
2018-Jun-08 15:01N 29°56' W 093°08'2 3.1
2018-Jun-08 14:30N 29°57' W 093°10'2 3.2
2018-Jun-08 14:00N 29°58' W 093°11'1 2.2
2018-Jun-08 13:28N 29°59' W 093°12'0 0.1
2018-Jun-08 12:58N 29°59' W 093°12'0 0.0
2018-Jun-08 12:31N 29°59' W 093°12'0 0.0
2018-Jun-08 12:01N 29°59' W 093°12'0 0.0
2018-Jun-08 11:30N 29°59' W 093°12'0 0.0
2018-Jun-08 11:01N 29°59' W 093°12'0 0.0
2018-Jun-08 10:31N 29°59' W 093°12'0 0.0
2018-Jun-08 10:01N 29°59' W 093°12'0 0.1
2018-Jun-08 09:31N 29°59' W 093°12'0 0.1
2018-Jun-08 09:01N 29°59' W 093°12'0 0.1
2018-Jun-08 08:31N 29°59' W 093°12'0 0.0
2018-Jun-08 08:01N 29°59' W 093°12'0 0.2
2018-Jun-08 07:30N 29°59' W 093°12'0 0.0
2018-Jun-08 07:01N 29°59' W 093°12'0 0.4
2018-Jun-08 06:30N 29°58' W 093°12'1 1.9
2018-Jun-08 06:00N 29°58' W 093°11'1 2.0
2018-Jun-08 05:30N 29°57' W 093°10'0 0.1
2018-Jun-08 04:51N 29°57' W 093°10'0 0.0
2018-Jun-08 04:26N 29°57' W 093°10'0 0.0
2018-Jun-08 03:58N 29°57' W 093°10'0 0.0
2018-Jun-08 02:47N 29°57' W 093°10'0 0.0
2018-Jun-08 02:15N 29°57' W 093°10'0 0.0
2018-Jun-08 01:29N 29°57' W 093°10'0 0.0
2018-Jun-07 18:50N 29°57' W 093°10'0 0.0
2018-Jun-07 18:28N 29°57' W 093°10'0 0.0
2018-Jun-07 17:56N 29°57' W 093°10'0 0.2
2018-Jun-07 17:31N 29°57' W 093°10'0 0.5
2018-Jun-07 16:50N 29°57' W 093°10'0 0.0
2018-Jun-07 16:29N 29°57' W 093°10'0 0.0
2018-Jun-07 16:00N 29°57' W 093°10'0 0.0
2018-Jun-07 15:30N 29°57' W 093°10'0 0.0
2018-Jun-07 15:01N 29°57' W 093°10'0 0.0
2018-Jun-07 14:30N 29°57' W 093°10'1 1.7
2018-Jun-07 14:01N 29°56' W 093°09'2 3.3
2018-Jun-07 13:30N 29°56' W 093°07'2 3.6
2018-Jun-07 13:01N 29°56' W 093°05'2 3.4
2018-Jun-07 12:30N 29°56' W 093°03'2 3.4
2018-Jun-07 12:01N 29°56' W 093°01'2 3.6
2018-Jun-07 11:29N 29°56' W 092°59'2 3.5
2018-Jun-07 11:00N 29°56' W 092°57'2 3.1
2018-Jun-07 10:30N 29°56' W 092°56'22 3.1
2018-Jun-07 03:15N 29°54' W 092°30'1 2.8
2018-Jun-07 03:00N 29°54' W 092°29'2 3.6
2018-Jun-07 02:31N 29°54' W 092°27'2 3.6
2018-Jun-07 02:01N 29°53' W 092°25'2 3.5
2018-Jun-07 01:26N 29°53' W 092°23'2 3.6
2018-Jun-07 00:54N 29°51' W 092°22'1 3.7
2018-Jun-07 00:30N 29°51' W 092°20'2 3.7
2018-Jun-07 00:01N 29°50' W 092°18'2 3.6
2018-Jun-06 23:29N 29°49' W 092°17'2 3.2
2018-Jun-06 23:01N 29°48' W 092°15'1 2.8
2018-Jun-06 22:31N 29°48' W 092°14'1 2.2
2018-Jun-06 21:59N 29°47' W 092°12'0 0.4
2018-Jun-06 21:30N 29°47' W 092°12'0 0.9
2018-Jun-06 21:00N 29°47' W 092°12'0 0.5
2018-Jun-06 20:30N 29°47' W 092°11'0 0.0
2018-Jun-06 20:00N 29°47' W 092°11'0 0.1
2018-Jun-06 19:31N 29°47' W 092°11'0 0.1
2018-Jun-06 19:00N 29°47' W 092°11'0 0.3
2018-Jun-06 18:31N 29°47' W 092°11'0 0.1
2018-Jun-06 18:00N 29°47' W 092°11'0 0.6
2018-Jun-06 17:31N 29°47' W 092°11'2 3.2
2018-Jun-06 17:00N 29°47' W 092°09'1 1.9
2018-Jun-06 16:30N 29°47' W 092°08'0 0.0
2018-Jun-06 16:01N 29°47' W 092°08'0 0.2
2018-Jun-06 15:30N 29°47' W 092°08'1 2.0
2018-Jun-06 15:01N 29°48' W 092°07'1 2.4
2018-Jun-06 14:30N 29°48' W 092°05'0 0.2
2018-Jun-06 14:00N 29°48' W 092°05'0 0.0
2018-Jun-06 13:30N 29°48' W 092°05'0 0.0
2018-Jun-06 13:00N 29°48' W 092°05'0 0.0
2018-Jun-06 12:30N 29°48' W 092°05'0 0.0
2018-Jun-06 12:00N 29°48' W 092°05'0 0.2
2018-Jun-06 11:30N 29°48' W 092°05'1 2.4
2018-Jun-06 11:01N 29°48' W 092°04'2 3.2
2018-Jun-06 10:31N 29°49' W 092°02'2 3.2
2018-Jun-06 09:56N 29°50' W 092°00'2 3.4
2018-Jun-06 09:28N 29°50' W 091°59'2 3.5
2018-Jun-06 08:47N 29°51' W 091°56'6 3.7
2018-Jun-06 07:17N 29°50' W 091°50'1 3.7
2018-Jun-06 07:00N 29°49' W 091°49'53 3.0
2018-Jun-05 13:33N 29°32' W 090°52'0 4.0
2018-Jun-05 13:28N 29°32' W 090°51'2 3.9
2018-Jun-05 13:00N 29°32' W 090°49'2 3.9
2018-Jun-05 12:30N 29°32' W 090°47'2 3.2
2018-Jun-05 12:00N 29°33' W 090°45'2 3.2
2018-Jun-05 11:31N 29°34' W 090°44'1 2.6
2018-Jun-05 11:01N 29°35' W 090°43'2 3.0
2018-Jun-05 10:31N 29°36' W 090°43'1 2.6
2018-Jun-05 10:00N 29°36' W 090°41'2 3.4
2018-Jun-05 09:30N 29°36' W 090°39'2 3.4
2018-Jun-05 09:00N 29°35' W 090°38'2 3.2
2018-Jun-05 08:30N 29°35' W 090°36'2 2.9
2018-Jun-05 07:57N 29°34' W 090°34'1 3.2
2018-Jun-05 07:30N 29°34' W 090°32'2 3.1
2018-Jun-05 06:58N 29°34' W 090°31'8 1.9
2018-Jun-05 02:42N 29°36' W 090°22'  

Dump ship's entire track history